Terminal Aerodrome Forecast
Issued by NWS

Current Version | Previous Version | Graphics & Text | Print | Product List | Glossary On
Versions: 1 2 3 4 5 6 7 8 9 10 11 12 13 14 15 16 17 18 19 20 21 22
288
FTUS41 KRLX 271755
TAFCKB
TAF
KCKB 271755Z 2718/2818 23006KT P6SM SCT025 OVC040
      TEMPO 2800/2804 -SHRA BKN025
     FM280400 VRB03KT P6SM -SHRA BKN050
     FM281000 17004KT 5SM SHRA OVC040
     FM281500 22008KT 4SM SHRA OVC025=

USA.gov is the U.S. government's official web portal to all federal, state and local government web resources and services.